sensor_id;sensor_type;location;lat;lon;timestamp;pressure;altitude;pressure_sealevel;temperature;humidity
57192;BME280;43052;52.588;13.396;2023-07-29T00:00:41;100418.31;;;17.05;93.91
57192;BME280;43052;52.588;13.396;2023-07-29T00:03:06;100415.97;;;16.98;93.83
57192;BME280;43052;52.588;13.396;2023-07-29T00:05:31;100404.66;;;16.94;93.83
57192;BME280;43052;52.588;13.396;2023-07-29T00:07:57;100404.69;;;16.92;93.85
57192;BME280;43052;52.588;13.396;2023-07-29T00:10:22;100397.84;;;16.87;94.03
57192;BME280;43052;52.588;13.396;2023-07-29T00:12:47;100396.25;;;16.83;93.92
57192;BME280;43052;52.588;13.396;2023-07-29T00:15:13;100398.94;;;16.81;94.00
57192;BME280;43052;52.588;13.396;2023-07-29T00:17:38;100396.53;;;16.75;93.47
57192;BME280;43052;52.588;13.396;2023-07-29T00:20:04;100389.75;;;16.68;93.66
57192;BME280;43052;52.588;13.396;2023-07-29T00:22:30;100401.31;;;16.65;94.19
57192;BME280;43052;52.588;13.396;2023-07-29T00:24:55;100399.59;;;16.63;94.52
57192;BME280;43052;52.588;13.396;2023-07-29T00:27:22;100390.16;;;16.57;94.63
57192;BME280;43052;52.588;13.396;2023-07-29T00:29:47;100390.16;;;16.57;94.63
57192;BME280;43052;52.588;13.396;2023-07-29T00:32:12;100396.34;;;16.56;94.89
57192;BME280;43052;52.588;13.396;2023-07-29T00:34:38;100399.94;;;16.53;94.47
57192;BME280;43052;52.588;13.396;2023-07-29T00:37:03;100400.91;;;16.51;94.81
57192;BME280;43052;52.588;13.396;2023-07-29T00:39:28;100396.72;;;16.45;94.95
57192;BME280;43052;52.588;13.396;2023-07-29T00:41:54;100394.16;;;16.43;94.96
57192;BME280;43052;52.588;13.396;2023-07-29T00:44:19;100397.75;;;16.41;94.79
57192;BME280;43052;52.588;13.396;2023-07-29T00:46:45;100394.41;;;16.36;95.16
57192;BME280;43052;52.588;13.396;2023-07-29T00:49:11;100404.06;;;16.37;95.30
57192;BME280;43052;52.588;13.396;2023-07-29T00:51:36;100395.38;;;16.33;95.24
57192;BME280;43052;52.588;13.396;2023-07-29T00:54:02;100400.78;;;16.30;94.95
57192;BME280;43052;52.588;13.396;2023-07-29T00:56:27;100400.88;;;16.27;94.96
57192;BME280;43052;52.588;13.396;2023-07-29T00:58:52;100390.50;;;16.22;95.14
57192;BME280;43052;52.588;13.396;2023-07-29T01:01:23;100395.88;;;16.19;95.00
57192;BME280;43052;52.588;13.396;2023-07-29T01:03:49;100395.03;;;16.19;94.84
57192;BME280;43052;52.588;13.396;2023-07-29T01:06:25;100390.81;;;16.13;94.91
57192;BME280;43052;52.588;13.396;2023-07-29T01:09:03;100389.19;;;16.09;95.35
57192;BME280;43052;52.588;13.396;2023-07-29T01:11:41;100392.63;;;16.11;95.11
57192;BME280;43052;52.588;13.396;2023-07-29T01:14:27;100389.25;;;16.07;95.32
57192;BME280;43052;52.588;13.396;2023-07-29T01:17:00;100375.25;;;16.05;94.91
57192;BME280;43052;52.588;13.396;2023-07-29T01:19:48;100377.09;;;16.03;95.45
57192;BME280;43052;52.588;13.396;2023-07-29T01:22:20;100369.94;;;16.07;95.81
57192;BME280;43052;52.588;13.396;2023-07-29T01:24:46;100368.28;;;16.04;95.12
57192;BME280;43052;52.588;13.396;2023-07-29T01:27:11;100357.88;;;16.00;95.70
57192;BME280;43052;52.588;13.396;2023-07-29T01:29:36;100362.28;;;15.99;95.69
57192;BME280;43052;52.588;13.396;2023-07-29T01:32:07;100357.09;;;15.96;95.60
57192;BME280;43052;52.588;13.396;2023-07-29T01:34:45;100358.97;;;15.92;95.45
57192;BME280;43052;52.588;13.396;2023-07-29T01:37:15;100361.69;;;15.91;95.68
57192;BME280;43052;52.588;13.396;2023-07-29T01:39:41;100355.56;;;15.90;96.09
57192;BME280;43052;52.588;13.396;2023-07-29T01:42:08;100366.88;;;15.92;96.13
57192;BME280;43052;52.588;13.396;2023-07-29T01:44:34;100367.03;;;15.88;95.99
57192;BME280;43052;52.588;13.396;2023-07-29T01:47:00;100367.00;;;15.89;96.22
57192;BME280;43052;52.588;13.396;2023-07-29T01:49:25;100377.50;;;15.91;96.14
57192;BME280;43052;52.588;13.396;2023-07-29T01:51:51;100373.25;;;15.87;96.40
57192;BME280;43052;52.588;13.396;2023-07-29T01:54:16;100378.41;;;15.90;96.85
57192;BME280;43052;52.588;13.396;2023-07-29T01:56:41;100370.56;;;15.88;96.63
57192;BME280;43052;52.588;13.396;2023-07-29T01:59:06;100371.47;;;15.87;97.07
57192;BME280;43052;52.588;13.396;2023-07-29T02:01:32;100373.25;;;15.87;97.09
57192;BME280;43052;52.588;13.396;2023-07-29T02:03:57;100376.69;;;15.89;96.88
57192;BME280;43052;52.588;13.396;2023-07-29T02:06:22;100375.94;;;15.85;96.41
57192;BME280;43052;52.588;13.396;2023-07-29T02:08:48;100370.75;;;15.82;96.43
57192;BME280;43052;52.588;13.396;2023-07-29T02:11:13;100369.88;;;15.81;96.05
57192;BME280;43052;52.588;13.396;2023-07-29T02:13:38;100363.91;;;15.76;96.08
57192;BME280;43052;52.588;13.396;2023-07-29T02:16:04;100361.41;;;15.72;95.98
57192;BME280;43052;52.588;13.396;2023-07-29T02:18:29;100369.31;;;15.72;96.16
57192;BME280;43052;52.588;13.396;2023-07-29T02:20:54;100371.06;;;15.73;96.29
57192;BME280;43052;52.588;13.396;2023-07-29T02:23:19;100354.50;;;15.67;95.77
57192;BME280;43052;52.588;13.396;2023-07-29T02:25:44;100358.94;;;15.67;96.37
57192;BME280;43052;52.588;13.396;2023-07-29T02:28:10;100374.31;;;15.79;96.60
57192;BME280;43052;52.588;13.396;2023-07-29T02:30:36;100381.28;;;15.82;96.78
57192;BME280;43052;52.588;13.396;2023-07-29T02:33:01;100381.44;;;15.77;96.81
57192;BME280;43052;52.588;13.396;2023-07-29T02:35:27;100385.84;;;15.77;97.31
57192;BME280;43052;52.588;13.396;2023-07-29T02:37:52;100382.38;;;15.75;97.91
57192;BME280;43052;52.588;13.396;2023-07-29T02:40:18;100377.84;;;15.80;98.50
57192;BME280;43052;52.588;13.396;2023-07-29T02:42:43;100381.19;;;15.85;99.00
57192;BME280;43052;52.588;13.396;2023-07-29T02:45:08;100378.34;;;15.91;99.21
57192;BME280;43052;52.588;13.396;2023-07-29T02:47:36;100375.63;;;15.94;98.91
57192;BME280;43052;52.588;13.396;2023-07-29T02:50:02;100368.78;;;15.89;98.63
57192;BME280;43052;52.588;13.396;2023-07-29T02:52:27;100369.59;;;15.91;98.19
57192;BME280;43052;52.588;13.396;2023-07-29T02:54:52;100369.50;;;15.94;97.84
57192;BME280;43052;52.588;13.396;2023-07-29T02:57:17;100362.50;;;15.93;97.55
57192;BME280;43052;52.588;13.396;2023-07-29T02:59:43;100370.50;;;15.90;97.25
57192;BME280;43052;52.588;13.396;2023-07-29T03:02:08;100371.56;;;15.84;97.18
57192;BME280;43052;52.588;13.396;2023-07-29T03:04:33;100365.50;;;15.80;97.11
57192;BME280;43052;52.588;13.396;2023-07-29T03:06:58;100364.66;;;15.80;97.15
57192;BME280;43052;52.588;13.396;2023-07-29T03:09:25;100353.38;;;15.75;96.77
57192;BME280;43052;52.588;13.396;2023-07-29T03:11:50;100364.84;;;15.74;97.14
57192;BME280;43052;52.588;13.396;2023-07-29T03:14:17;100362.03;;;15.80;97.26
57192;BME280;43052;52.588;13.396;2023-07-29T03:16:42;100366.38;;;15.81;97.28
57192;BME280;43052;52.588;13.396;2023-07-29T03:19:08;100370.78;;;15.80;97.38
57192;BME280;43052;52.588;13.396;2023-07-29T03:21:33;100368.34;;;15.74;97.20
57192;BME280;43052;52.588;13.396;2023-07-29T03:23:58;100373.72;;;15.71;97.12
57192;BME280;43052;52.588;13.396;2023-07-29T03:26:23;100369.25;;;15.73;97.40
57192;BME280;43052;52.588;13.396;2023-07-29T03:28:49;100365.66;;;15.76;97.57
57192;BME280;43052;52.588;13.396;2023-07-29T03:31:14;100365.50;;;15.80;98.13
57192;BME280;43052;52.588;13.396;2023-07-29T03:33:39;100353.97;;;15.83;98.11
57192;BME280;43052;52.588;13.396;2023-07-29T03:36:05;100354.69;;;15.90;98.39
57192;BME280;43052;52.588;13.396;2023-07-29T03:38:30;100364.97;;;15.97;98.51
57192;BME280;43052;52.588;13.396;2023-07-29T03:40:56;100357.75;;;16.03;98.89
57192;BME280;43052;52.588;13.396;2023-07-29T03:43:22;100354.91;;;16.09;99.04
57192;BME280;43052;52.588;13.396;2023-07-29T03:45:47;100356.44;;;16.16;98.96
57192;BME280;43052;52.588;13.396;2023-07-29T03:48:12;100351.94;;;16.18;99.16
57192;BME280;43052;52.588;13.396;2023-07-29T03:50:37;100355.28;;;16.23;98.80
57192;BME280;43052;52.588;13.396;2023-07-29T03:53:03;100353.34;;;16.28;99.11
57192;BME280;43052;52.588;13.396;2023-07-29T03:55:29;100351.50;;;16.31;99.53
57192;BME280;43052;52.588;13.396;2023-07-29T03:57:56;100343.38;;;16.37;99.36
57192;BME280;43052;52.588;13.396;2023-07-29T04:00:21;100348.47;;;16.41;99.14
57192;BME280;43052;52.588;13.396;2023-07-29T04:02:46;100349.19;;;16.47;99.44
57192;BME280;43052;52.588;13.396;2023-07-29T04:05:12;100355.06;;;16.53;99.41
57192;BME280;43052;52.588;13.396;2023-07-29T04:07:37;100343.41;;;16.60;99.29
57192;BME280;43052;52.588;13.396;2023-07-29T04:10:03;100362.56;;;16.66;99.41
57192;BME280;43052;52.588;13.396;2023-07-29T04:12:28;100350.91;;;16.71;99.23
57192;BME280;43052;52.588;13.396;2023-07-29T04:14:54;100354.34;;;16.73;99.33
57192;BME280;43052;52.588;13.396;2023-07-29T04:17:19;100354.75;;;16.86;99.37
57192;BME280;43052;52.588;13.396;2023-07-29T04:19:44;100345.78;;;17.36;99.88
57192;BME280;43052;52.588;13.396;2023-07-29T04:22:09;100341.03;;;17.88;98.58
57192;BME280;43052;52.588;13.396;2023-07-29T04:24:35;100341.72;;;17.93;97.72
57192;BME280;43052;52.588;13.396;2023-07-29T04:27:00;100335.53;;;17.92;97.79
57192;BME280;43052;52.588;13.396;2023-07-29T04:29:25;100341.72;;;18.53;97.73
57192;BME280;43052;52.588;13.396;2023-07-29T04:31:51;100341.34;;;18.82;96.78
57192;BME280;43052;52.588;13.396;2023-07-29T04:34:17;100331.53;;;19.03;96.79
57192;BME280;43052;52.588;13.396;2023-07-29T04:36:43;100337.22;;;19.32;96.25
57192;BME280;43052;52.588;13.396;2023-07-29T04:39:08;100352.34;;;20.19;95.79
57192;BME280;43052;52.588;13.396;2023-07-29T04:41:34;100347.78;;;21.36;93.57
57192;BME280;43052;52.588;13.396;2023-07-29T04:43:59;100349.84;;;22.37;89.02
57192;BME280;43052;52.588;13.396;2023-07-29T04:46:24;100342.00;;;23.21;83.13
57192;BME280;43052;52.588;13.396;2023-07-29T04:48:49;100341.22;;;23.86;78.45
57192;BME280;43052;52.588;13.396;2023-07-29T04:51:15;100348.66;;;24.47;74.87
57192;BME280;43052;52.588;13.396;2023-07-29T04:53:40;100347.16;;;25.30;70.57
57192;BME280;43052;52.588;13.396;2023-07-29T04:56:05;100347.03;;;25.92;66.65
57192;BME280;43052;52.588;13.396;2023-07-29T04:58:30;100348.91;;;25.67;65.01
57192;BME280;43052;52.588;13.396;2023-07-29T05:00:59;100342.41;;;25.10;65.63
57192;BME280;43052;52.588;13.396;2023-07-29T05:03:24;100342.00;;;25.40;64.93
57192;BME280;43052;52.588;13.396;2023-07-29T05:05:50;100336.81;;;26.21;63.16
57192;BME280;43052;52.588;13.396;2023-07-29T05:08:16;100336.03;;;27.10;59.62
57192;BME280;43052;52.588;13.396;2023-07-29T05:10:41;100334.25;;;27.86;55.98
57192;BME280;43052;52.588;13.396;2023-07-29T05:13:07;100335.97;;;28.39;54.41
57192;BME280;43052;52.588;13.396;2023-07-29T05:15:32;100335.81;;;29.02;52.35
57192;BME280;43052;52.588;13.396;2023-07-29T05:17:57;100325.50;;;29.66;50.69
57192;BME280;43052;52.588;13.396;2023-07-29T05:20:22;100334.25;;;29.88;48.63
57192;BME280;43052;52.588;13.396;2023-07-29T05:22:48;100327.78;;;29.42;49.12
57192;BME280;43052;52.588;13.396;2023-07-29T05:25:13;100322.63;;;29.29;49.22
57192;BME280;43052;52.588;13.396;2023-07-29T05:27:38;100321.13;;;29.65;47.94
57192;BME280;43052;52.588;13.396;2023-07-29T05:30:04;100318.53;;;30.03;47.20
57192;BME280;43052;52.588;13.396;2023-07-29T05:32:29;100311.69;;;30.46;46.22
57192;BME280;43052;52.588;13.396;2023-07-29T05:34:55;100317.91;;;30.85;44.75
57192;BME280;43052;52.588;13.396;2023-07-29T05:37:20;100315.09;;;31.22;44.11
57192;BME280;43052;52.588;13.396;2023-07-29T05:39:45;100321.50;;;32.02;42.71
57192;BME280;43052;52.588;13.396;2023-07-29T05:42:10;100320.25;;;32.84;41.05
57192;BME280;43052;52.588;13.396;2023-07-29T05:44:36;100319.66;;;33.56;39.52
57192;BME280;43052;52.588;13.396;2023-07-29T05:47:01;100316.69;;;33.00;40.14
57192;BME280;43052;52.588;13.396;2023-07-29T05:49:26;100323.72;;;31.62;42.08
57192;BME280;43052;52.588;13.396;2023-07-29T05:51:51;100316.31;;;30.64;43.44
57192;BME280;43052;52.588;13.396;2023-07-29T05:54:18;100319.13;;;30.25;44.71
57192;BME280;43052;52.588;13.396;2023-07-29T05:56:43;100317.56;;;30.70;44.28
57192;BME280;43052;52.588;13.396;2023-07-29T05:59:08;100314.03;;;31.51;42.60
57192;BME280;43052;52.588;13.396;2023-07-29T06:01:33;100313.13;;;32.48;40.81
57192;BME280;43052;52.588;13.396;2023-07-29T06:03:58;100305.78;;;33.42;39.02
57192;BME280;43052;52.588;13.396;2023-07-29T06:06:24;100305.72;;;34.00;37.48
57192;BME280;43052;52.588;13.396;2023-07-29T06:08:50;100300.28;;;34.57;36.20
57192;BME280;43052;52.588;13.396;2023-07-29T06:11:15;100291.28;;;35.19;35.78
57192;BME280;43052;52.588;13.396;2023-07-29T06:13:40;100278.94;;;35.55;34.63
57192;BME280;43052;52.588;13.396;2023-07-29T06:16:05;100281.91;;;35.83;33.64
57192;BME280;43052;52.588;13.396;2023-07-29T06:18:30;100271.69;;;35.70;33.49
57192;BME280;43052;52.588;13.396;2023-07-29T06:20:56;100274.03;;;35.88;33.13
57192;BME280;43052;52.588;13.396;2023-07-29T06:23:21;100272.09;;;35.97;32.94
57192;BME280;43052;52.588;13.396;2023-07-29T06:25:46;100280.25;;;36.12;33.06
57192;BME280;43052;52.588;13.396;2023-07-29T06:28:12;100282.50;;;36.53;32.71
57192;BME280;43052;52.588;13.396;2023-07-29T06:30:38;100280.47;;;36.99;32.01
57192;BME280;43052;52.588;13.396;2023-07-29T06:33:03;100285.06;;;37.92;30.68
57192;BME280;43052;52.588;13.396;2023-07-29T06:35:28;100280.94;;;38.45;29.26
57192;BME280;43052;52.588;13.396;2023-07-29T06:37:53;100288.50;;;38.07;29.51
57192;BME280;43052;52.588;13.396;2023-07-29T06:40:19;100285.53;;;37.45;30.79
57192;BME280;43052;52.588;13.396;2023-07-29T06:42:44;100289.16;;;38.09;30.18
57192;BME280;43052;52.588;13.396;2023-07-29T06:45:09;100294.59;;;39.13;29.14
57192;BME280;43052;52.588;13.396;2023-07-29T06:47:35;100287.28;;;39.74;27.68
57192;BME280;43052;52.588;13.396;2023-07-29T06:50:00;100291.47;;;39.50;27.70
57192;BME280;43052;52.588;13.396;2023-07-29T06:52:26;100289.59;;;39.44;27.92
57192;BME280;43052;52.588;13.396;2023-07-29T06:54:51;100295.25;;;39.76;27.23
57192;BME280;43052;52.588;13.396;2023-07-29T06:57:16;100288.94;;;40.48;26.78
57192;BME280;43052;52.588;13.396;2023-07-29T06:59:41;100290.84;;;41.25;25.78
57192;BME280;43052;52.588;13.396;2023-07-29T07:02:07;100293.09;;;41.34;25.80
57192;BME280;43052;52.588;13.396;2023-07-29T07:04:32;100296.13;;;41.52;25.37
57192;BME280;43052;52.588;13.396;2023-07-29T07:06:57;100295.59;;;41.11;25.39
57192;BME280;43052;52.588;13.396;2023-07-29T07:09:22;100299.63;;;39.90;27.16
57192;BME280;43052;52.588;13.396;2023-07-29T07:11:48;100296.88;;;39.16;27.53
57192;BME280;43052;52.588;13.396;2023-07-29T07:14:13;100304.53;;;38.24;28.76
57192;BME280;43052;52.588;13.396;2023-07-29T07:16:38;100309.28;;;37.30;29.96
57192;BME280;43052;52.588;13.396;2023-07-29T07:19:04;100300.28;;;35.81;31.80
57192;BME280;43052;52.588;13.396;2023-07-29T07:21:29;100305.81;;;34.32;34.53
57192;BME280;43052;52.588;13.396;2023-07-29T07:23:55;100315.38;;;33.20;35.87
57192;BME280;43052;52.588;13.396;2023-07-29T07:26:20;100314.75;;;32.06;37.85
57192;BME280;43052;52.588;13.396;2023-07-29T07:28:45;100309.91;;;30.93;39.94
57192;BME280;43052;52.588;13.396;2023-07-29T07:31:10;100319.06;;;30.54;40.89
57192;BME280;43052;52.588;13.396;2023-07-29T07:33:36;100314.69;;;30.53;41.44
57192;BME280;43052;52.588;13.396;2023-07-29T07:36:01;100311.81;;;30.55;41.22
57192;BME280;43052;52.588;13.396;2023-07-29T07:38:26;100311.03;;;30.90;41.68
57192;BME280;43052;52.588;13.396;2023-07-29T07:40:55;100307.31;;;30.91;41.34
57192;BME280;43052;52.588;13.396;2023-07-29T07:43:21;100297.00;;;30.87;41.25
57192;BME280;43052;52.588;13.396;2023-07-29T07:45:46;100297.03;;;31.41;40.60
57192;BME280;43052;52.588;13.396;2023-07-29T07:48:11;100295.97;;;32.31;39.88
57192;BME280;43052;52.588;13.396;2023-07-29T07:50:38;100283.94;;;33.36;37.79
57192;BME280;43052;52.588;13.396;2023-07-29T07:53:03;100271.75;;;33.40;37.65
57192;BME280;43052;52.588;13.396;2023-07-29T07:55:28;100275.25;;;33.82;37.11
57192;BME280;43052;52.588;13.396;2023-07-29T07:57:54;100270.72;;;35.40;34.32
57192;BME280;43052;52.588;13.396;2023-07-29T08:00:20;100264.72;;;35.68;33.57
57192;BME280;43052;52.588;13.396;2023-07-29T08:02:46;100266.53;;;35.75;33.64
57192;BME280;43052;52.588;13.396;2023-07-29T08:05:11;100266.28;;;37.04;32.34
57192;BME280;43052;52.588;13.396;2023-07-29T08:07:36;100264.91;;;37.65;30.93
57192;BME280;43052;52.588;13.396;2023-07-29T08:10:02;100265.38;;;39.00;29.01
57192;BME280;43052;52.588;13.396;2023-07-29T08:12:27;100254.69;;;41.09;26.70
57192;BME280;43052;52.588;13.396;2023-07-29T08:14:53;100258.16;;;41.23;25.78
57192;BME280;43052;52.588;13.396;2023-07-29T08:17:18;100259.28;;;41.85;25.31
57192;BME280;43052;52.588;13.396;2023-07-29T08:19:43;100257.69;;;41.77;25.42
57192;BME280;43052;52.588;13.396;2023-07-29T08:22:08;100261.91;;;41.54;25.11
57192;BME280;43052;52.588;13.396;2023-07-29T08:24:34;100252.63;;;41.04;26.21
57192;BME280;43052;52.588;13.396;2023-07-29T08:26:59;100248.78;;;43.10;24.05
57192;BME280;43052;52.588;13.396;2023-07-29T08:29:24;100255.09;;;42.99;23.55
57192;BME280;43052;52.588;13.396;2023-07-29T08:31:50;100252.16;;;41.33;25.71
57192;BME280;43052;52.588;13.396;2023-07-29T08:34:16;100242.28;;;41.57;24.95
57192;BME280;43052;52.588;13.396;2023-07-29T08:36:42;100250.47;;;40.29;26.33
57192;BME280;43052;52.588;13.396;2023-07-29T08:39:07;100252.66;;;38.11;29.46
57192;BME280;43052;52.588;13.396;2023-07-29T08:41:37;100256.53;;;36.94;30.72
57192;BME280;43052;52.588;13.396;2023-07-29T08:44:12;100228.66;;;36.04;31.78
57192;BME280;43052;52.588;13.396;2023-07-29T08:46:42;100238.72;;;35.50;32.98
57192;BME280;43052;52.588;13.396;2023-07-29T08:49:07;100237.91;;;37.20;31.70
57192;BME280;43052;52.588;13.396;2023-07-29T08:51:33;100245.28;;;40.14;27.56
57192;BME280;43052;52.588;13.396;2023-07-29T08:53:59;100233.13;;;40.49;26.90
57192;BME280;43052;52.588;13.396;2023-07-29T08:56:25;100227.09;;;39.14;28.00
57192;BME280;43052;52.588;13.396;2023-07-29T08:58:51;100235.81;;;37.43;30.24
57192;BME280;43052;52.588;13.396;2023-07-29T09:01:17;100232.50;;;35.65;32.09
57192;BME280;43052;52.588;13.396;2023-07-29T09:03:42;100247.69;;;34.18;34.96
57192;BME280;43052;52.588;13.396;2023-07-29T09:06:08;100248.00;;;33.09;36.51
57192;BME280;43052;52.588;13.396;2023-07-29T09:08:34;100259.34;;;32.10;38.26
57192;BME280;43052;52.588;13.396;2023-07-29T09:11:00;100252.56;;;31.53;40.04
57192;BME280;43052;52.588;13.396;2023-07-29T09:13:26;100258.72;;;31.19;40.59
57192;BME280;43052;52.588;13.396;2023-07-29T09:15:55;100247.50;;;31.32;40.21
57192;BME280;43052;52.588;13.396;2023-07-29T09:18:21;100244.81;;;31.32;41.01
57192;BME280;43052;52.588;13.396;2023-07-29T09:20:47;100236.25;;;31.63;40.36
57192;BME280;43052;52.588;13.396;2023-07-29T09:23:13;100228.69;;;31.93;39.77
57192;BME280;43052;52.588;13.396;2023-07-29T09:25:39;100220.78;;;32.00;40.08
57192;BME280;43052;52.588;13.396;2023-07-29T09:28:14;100220.63;;;32.44;39.31
57192;BME280;43052;52.588;13.396;2023-07-29T09:30:41;100214.69;;;33.33;38.82
57192;BME280;43052;52.588;13.396;2023-07-29T09:33:09;100224.13;;;36.26;33.41
57192;BME280;43052;52.588;13.396;2023-07-29T09:35:35;100216.59;;;37.52;30.69
57192;BME280;43052;52.588;13.396;2023-07-29T09:38:07;100211.06;;;36.51;32.08
57192;BME280;43052;52.588;13.396;2023-07-29T09:40:40;100213.72;;;35.17;33.58
57192;BME280;43052;52.588;13.396;2023-07-29T09:43:06;100213.53;;;34.00;35.68
57192;BME280;43052;52.588;13.396;2023-07-29T09:45:36;100209.78;;;33.37;37.12
57192;BME280;43052;52.588;13.396;2023-07-29T09:48:03;100209.41;;;33.15;37.33
57192;BME280;43052;52.588;13.396;2023-07-29T09:50:29;100211.78;;;33.10;37.82
57192;BME280;43052;52.588;13.396;2023-07-29T09:52:56;100208.91;;;32.95;38.25
57192;BME280;43052;52.588;13.396;2023-07-29T09:55:24;100195.66;;;32.75;38.36
57192;BME280;43052;52.588;13.396;2023-07-29T09:57:56;100196.50;;;32.68;38.41
57192;BME280;43052;52.588;13.396;2023-07-29T10:00:23;100201.25;;;32.74;38.64
57192;BME280;43052;52.588;13.396;2023-07-29T10:02:48;100193.03;;;32.84;38.84
57192;BME280;43052;52.588;13.396;2023-07-29T10:05:14;100188.03;;;32.71;39.18
57192;BME280;43052;52.588;13.396;2023-07-29T10:07:40;100190.25;;;32.75;38.18
57192;BME280;43052;52.588;13.396;2023-07-29T10:10:07;100185.69;;;33.67;37.29
57192;BME280;43052;52.588;13.396;2023-07-29T10:12:34;100174.63;;;34.79;34.97
57192;BME280;43052;52.588;13.396;2023-07-29T10:15:04;100166.41;;;35.94;33.59
57192;BME280;43052;52.588;13.396;2023-07-29T10:17:36;100161.88;;;36.75;32.76
57192;BME280;43052;52.588;13.396;2023-07-29T10:20:03;100172.97;;;36.36;31.60
57192;BME280;43052;52.588;13.396;2023-07-29T10:22:33;100168.03;;;35.35;33.58
57192;BME280;43052;52.588;13.396;2023-07-29T10:25:03;100168.06;;;34.74;34.02
57192;BME280;43052;52.588;13.396;2023-07-29T10:27:31;100172.72;;;34.02;35.71
57192;BME280;43052;52.588;13.396;2023-07-29T10:30:00;100173.38;;;32.98;37.27
57192;BME280;43052;52.588;13.396;2023-07-29T10:32:26;100168.88;;;31.88;38.85
57192;BME280;43052;52.588;13.396;2023-07-29T10:34:54;100168.94;;;30.99;40.69
57192;BME280;43052;52.588;13.396;2023-07-29T10:37:20;100153.03;;;30.42;42.07
57192;BME280;43052;52.588;13.396;2023-07-29T10:39:54;100148.06;;;30.19;42.54
57192;BME280;43052;52.588;13.396;2023-07-29T10:42:19;100150.91;;;30.17;42.56
57192;BME280;43052;52.588;13.396;2023-07-29T10:44:46;100140.84;;;30.38;42.34
57192;BME280;43052;52.588;13.396;2023-07-29T10:47:17;100136.72;;;30.61;41.93
57192;BME280;43052;52.588;13.396;2023-07-29T10:49:46;100126.88;;;30.42;41.77
57192;BME280;43052;52.588;13.396;2023-07-29T10:52:13;100119.25;;;30.01;42.19
57192;BME280;43052;52.588;13.396;2023-07-29T10:54:44;100108.91;;;29.59;43.18
57192;BME280;43052;52.588;13.396;2023-07-29T10:57:31;100109.31;;;29.17;43.88
57192;BME280;43052;52.588;13.396;2023-07-29T10:59:57;100098.19;;;28.72;45.02
57192;BME280;43052;52.588;13.396;2023-07-29T11:02:29;100116.22;;;28.21;46.23
57192;BME280;43052;52.588;13.396;2023-07-29T11:04:54;100125.13;;;27.71;46.91
57192;BME280;43052;52.588;13.396;2023-07-29T11:07:21;100154.16;;;27.35;48.48
57192;BME280;43052;52.588;13.396;2023-07-29T11:09:58;100167.38;;;26.73;50.22
57192;BME280;43052;52.588;13.396;2023-07-29T11:12:37;100168.72;;;26.23;51.45
57192;BME280;43052;52.588;13.396;2023-07-29T11:15:13;100165.56;;;25.73;52.89
57192;BME280;43052;52.588;13.396;2023-07-29T11:17:40;100179.44;;;25.19;54.62
57192;BME280;43052;52.588;13.396;2023-07-29T11:20:07;100216.56;;;25.00;55.51
57192;BME280;43052;52.588;13.396;2023-07-29T11:22:33;100247.28;;;24.70;57.12
57192;BME280;43052;52.588;13.396;2023-07-29T11:24:58;100232.41;;;23.90;60.43
57192;BME280;43052;52.588;13.396;2023-07-29T11:27:24;100193.84;;;22.89;64.84
57192;BME280;43052;52.588;13.396;2023-07-29T11:29:49;100188.47;;;22.05;67.46
57192;BME280;43052;52.588;13.396;2023-07-29T11:32:15;100204.94;;;21.69;69.54
57192;BME280;43052;52.588;13.396;2023-07-29T11:34:41;100208.16;;;21.59;70.80
57192;BME280;43052;52.588;13.396;2023-07-29T11:37:10;100197.09;;;21.51;72.07
57192;BME280;43052;52.588;13.396;2023-07-29T11:39:41;100186.16;;;21.56;73.30
57192;BME280;43052;52.588;13.396;2023-07-29T11:42:10;100181.81;;;21.69;73.20
57192;BME280;43052;52.588;13.396;2023-07-29T11:44:36;100178.91;;;21.88;73.43
57192;BME280;43052;52.588;13.396;2023-07-29T11:47:01;100186.13;;;22.15;72.91
57192;BME280;43052;52.588;13.396;2023-07-29T11:49:27;100178.28;;;22.41;72.63
57192;BME280;43052;52.588;13.396;2023-07-29T11:51:52;100176.69;;;22.66;72.03
57192;BME280;43052;52.588;13.396;2023-07-29T11:54:18;100165.28;;;22.91;71.52
57192;BME280;43052;52.588;13.396;2023-07-29T11:56:46;100170.41;;;23.07;70.90
57192;BME280;43052;52.588;13.396;2023-07-29T11:59:12;100169.91;;;23.15;70.07
57192;BME280;43052;52.588;13.396;2023-07-29T12:01:38;100158.91;;;23.07;69.71
57192;BME280;43052;52.588;13.396;2023-07-29T12:04:03;100164.75;;;22.99;69.99
57192;BME280;43052;52.588;13.396;2023-07-29T12:06:29;100164.91;;;22.56;70.87
57192;BME280;43052;52.588;13.396;2023-07-29T12:08:56;100171.09;;;22.14;72.14
57192;BME280;43052;52.588;13.396;2023-07-29T12:11:21;100161.78;;;21.92;73.38
57192;BME280;43052;52.588;13.396;2023-07-29T12:13:47;100151.53;;;21.86;74.06
57192;BME280;43052;52.588;13.396;2023-07-29T12:16:16;100162.91;;;22.03;74.00
57192;BME280;43052;52.588;13.396;2023-07-29T12:18:42;100166.50;;;22.31;73.29
57192;BME280;43052;52.588;13.396;2023-07-29T12:21:08;100167.41;;;22.59;72.64
57192;BME280;43052;52.588;13.396;2023-07-29T12:23:33;100172.25;;;22.79;72.35
57192;BME280;43052;52.588;13.396;2023-07-29T12:25:59;100173.31;;;23.04;71.67
57192;BME280;43052;52.588;13.396;2023-07-29T12:28:25;100169.84;;;23.29;71.41
57192;BME280;43052;52.588;13.396;2023-07-29T12:30:57;100175.50;;;23.51;70.82
57192;BME280;43052;52.588;13.396;2023-07-29T12:33:36;100179.34;;;23.72;70.30
57192;BME280;43052;52.588;13.396;2023-07-29T12:36:02;100176.56;;;23.87;69.93